Time;durP1;ratioP1;P1;durP2;ratioP2;P2;SDS_P1;SDS_P2;PMS_P1;PMS_P2;Temp;Humidity;BMP_temperature;BMP_pressure;BME280_temperature;BME280_humidity;BME280_pressure;Samples;Min_cycle;Max_cycle;Signal;HPM_P1;HPM_P2
2021/01/30 00:00:09;;;;;;;62.13;15.65;;;;;;;;;;5026698;28;20055;-70
2021/01/30 00:02:35;;;;;;;75.60;13.88;;;;;;;;;;5026128;28;20025;-71
2021/01/30 00:05:00;;;;;;;63.75;9.82;;;;;;;;;;5026094;28;20033;-70
2021/01/30 00:07:25;;;;;;;51.83;9.13;;;;;;;;;;5026003;28;20406;-70
2021/01/30 00:09:50;;;;;;;52.00;8.02;;;;;;;;;;5025207;28;20029;-70
2021/01/30 00:12:16;;;;;;;54.85;9.07;;;;;;;;;;5026487;28;20054;-70
2021/01/30 00:14:41;;;;;;;62.53;8.02;;;;;;;;;;5028319;28;20367;-70
2021/01/30 00:17:08;;;;;;;60.22;7.88;;;;;;;;;;5028373;28;20025;-70
2021/01/30 00:19:34;;;;;;;56.13;7.60;;;;;;;;;;5029001;28;20045;-70
2021/01/30 00:22:00;;;;;;;58.97;8.77;;;;;;;;;;5029345;28;20017;-70
2021/01/30 00:24:27;;;;;;;61.25;8.32;;;;;;;;;;5029491;28;20029;-70
2021/01/30 00:26:53;;;;;;;64.40;8.10;;;;;;;;;;5030982;28;20052;-68
2021/01/30 00:29:20;;;;;;;54.10;7.38;;;;;;;;;;5032635;28;20017;-70
2021/01/30 00:31:45;;;;;;;65.32;8.48;;;;;;;;;;5032279;28;20069;-70
2021/01/30 00:34:11;;;;;;;56.55;6.57;;;;;;;;;;5035623;28;20056;-70
2021/01/30 00:36:36;;;;;;;60.00;8.30;;;;;;;;;;5038761;28;20025;-70
2021/01/30 00:39:02;;;;;;;62.05;8.35;;;;;;;;;;5038434;28;20492;-70
2021/01/30 00:41:27;;;;;;;55.85;8.52;;;;;;;;;;5038497;28;20057;-68
2021/01/30 00:43:52;;;;;;;54.83;9.50;;;;;;;;;;5038797;28;20018;-68
2021/01/30 00:46:17;;;;;;;61.65;8.80;;;;;;;;;;5039117;28;20068;-69
2021/01/30 00:48:43;;;;;;;64.43;9.50;;;;;;;;;;5038953;28;20029;-69
2021/01/30 00:51:09;;;;;;;38.13;6.72;;;;;;;;;;5038944;28;20151;-68
2021/01/30 00:53:34;;;;;;;55.88;8.05;;;;;;;;;;5038498;28;20417;-69
2021/01/30 00:55:59;;;;;;;39.67;6.93;;;;;;;;;;5038923;28;20404;-69
2021/01/30 00:58:24;;;;;;;58.92;7.15;;;;;;;;;;5038768;28;20033;-68
2021/01/30 01:00:50;;;;;;;58.45;6.82;;;;;;;;;;5038934;28;20482;-68
2021/01/30 01:03:15;;;;;;;43.92;6.57;;;;;;;;;;5038805;28;20072;-69
2021/01/30 01:05:40;;;;;;;32.63;6.50;;;;;;;;;;5038954;28;20017;-68
2021/01/30 01:08:05;;;;;;;51.30;7.05;;;;;;;;;;5038821;28;20037;-69
2021/01/30 01:10:31;;;;;;;43.13;6.53;;;;;;;;;;5038625;28;20048;-69
2021/01/30 01:12:56;;;;;;;51.35;6.60;;;;;;;;;;5038291;28;20060;-68
2021/01/30 01:15:22;;;;;;;35.30;7.15;;;;;;;;;;5038827;28;20115;-69
2021/01/30 01:17:48;;;;;;;50.13;7.18;;;;;;;;;;5038649;28;20394;-69
2021/01/30 01:20:16;;;;;;;53.80;6.63;;;;;;;;;;5038688;28;20053;-68
2021/01/30 01:22:41;;;;;;;56.35;6.32;;;;;;;;;;5037366;28;20061;-69
2021/01/30 01:25:07;;;;;;;43.33;5.97;;;;;;;;;;5038493;28;20497;-69
2021/01/30 01:27:32;;;;;;;46.10;5.55;;;;;;;;;;5038269;28;20385;-68
2021/01/30 01:29:58;;;;;;;41.80;5.47;;;;;;;;;;5038705;28;20025;-68
2021/01/30 01:32:24;;;;;;;45.05;6.53;;;;;;;;;;5038610;28;20128;-68
2021/01/30 01:34:49;;;;;;;40.67;7.38;;;;;;;;;;5038696;28;20108;-68
2021/01/30 01:37:15;;;;;;;31.08;5.03;;;;;;;;;;5038334;28;20041;-69
2021/01/30 01:39:40;;;;;;;36.70;6.65;;;;;;;;;;5038756;28;20494;-68
2021/01/30 01:42:09;;;;;;;43.65;5.93;;;;;;;;;;5038392;28;20021;-68
2021/01/30 01:44:35;;;;;;;36.78;5.63;;;;;;;;;;5036870;28;20100;-68
2021/01/30 01:47:01;;;;;;;48.03;6.10;;;;;;;;;;5035015;28;20176;-68
2021/01/30 01:49:32;;;;;;;41.20;5.25;;;;;;;;;;5035395;28;20370;-68
2021/01/30 01:52:16;;;;;;;45.25;6.15;;;;;;;;;;5035262;28;20044;-68
2021/01/30 01:54:41;;;;;;;55.17;6.15;;;;;;;;;;5035377;28;20112;-69
2021/01/30 01:57:10;;;;;;;40.35;6.38;;;;;;;;;;5035078;28;20068;-69
2021/01/30 01:59:39;;;;;;;45.90;5.82;;;;;;;;;;5034963;28;20501;-68
2021/01/30 02:02:04;;;;;;;41.83;6.07;;;;;;;;;;5035074;28;20024;-69
2021/01/30 02:04:29;;;;;;;36.72;5.53;;;;;;;;;;5035197;28;20108;-68
2021/01/30 02:06:54;;;;;;;50.67;6.05;;;;;;;;;;5035013;28;20848;-69
2021/01/30 02:09:21;;;;;;;39.13;6.55;;;;;;;;;;5035142;28;20029;-69
2021/01/30 02:11:57;;;;;;;46.83;7.43;;;;;;;;;;5035002;28;20042;-68
2021/01/30 02:14:22;;;;;;;;;;;;;;;;;;5035325;28;20111;-68
2021/01/30 02:16:54;;;;;;;27.83;4.47;;;;;;;;;;5034687;28;19967;-68
2021/01/30 02:19:38;;;;;;;46.38;7.35;;;;;;;;;;5034493;28;20196;-68
2021/01/30 02:22:08;;;;;;;40.08;4.90;;;;;;;;;;5034532;28;20033;-68
2021/01/30 02:24:55;;;;;;;31.52;4.03;;;;;;;;;;5034743;28;20052;-70
2021/01/30 02:27:39;;;;;;;37.03;4.60;;;;;;;;;;5034585;28;20030;-70
2021/01/30 02:30:28;;;;;;;46.83;5.32;;;;;;;;;;5034592;28;20030;-70
2021/01/30 02:33:11;;;;;;;43.85;4.40;;;;;;;;;;5033282;28;20061;-70
2021/01/30 02:35:36;;;;;;;35.95;5.07;;;;;;;;;;5034628;28;20040;-68
2021/01/30 02:38:06;;;;;;;28.08;3.88;;;;;;;;;;5034256;28;20045;-68
2021/01/30 02:40:36;;;;;;;38.17;3.97;;;;;;;;;;5034392;28;20040;-68
2021/01/30 02:43:07;;;;;;;44.72;5.60;;;;;;;;;;5034280;28;20033;-68
2021/01/30 02:45:36;;;;;;;32.70;3.65;;;;;;;;;;5034434;28;20033;-68
2021/01/30 02:48:05;;;;;;;45.08;4.78;;;;;;;;;;5034195;28;20041;-69
2021/01/30 02:50:35;;;;;;;36.45;5.32;;;;;;;;;;5034343;28;20059;-68
2021/01/30 02:53:02;;;;;;;33.90;4.35;;;;;;;;;;5034045;28;20029;-68
2021/01/30 02:55:28;;;;;;;34.08;3.83;;;;;;;;;;5034247;28;20032;-68
2021/01/30 02:57:53;;;;;;;44.88;3.72;;;;;;;;;;5033613;28;20042;-68
2021/01/30 03:00:22;;;;;;;51.28;4.60;;;;;;;;;;5034086;28;20405;-68
2021/01/30 03:02:47;;;;;;;36.42;5.35;;;;;;;;;;5033906;28;20029;-68
2021/01/30 03:05:14;;;;;;;34.90;4.32;;;;;;;;;;5034105;28;20038;-68
2021/01/30 03:07:42;;;;;;;26.90;4.00;;;;;;;;;;5065792;28;20030;-68
2021/01/30 03:10:16;;;;;;;39.22;4.85;;;;;;;;;;5034208;28;20044;-68
2021/01/30 03:12:41;;;;;;;26.02;4.47;;;;;;;;;;5026164;28;20053;-71
2021/01/30 03:15:21;;;;;;;21.38;4.28;;;;;;;;;;5033079;28;20076;-70
2021/01/30 03:17:47;;;;;;;31.83;4.68;;;;;;;;;;5032844;28;20053;-70
2021/01/30 03:20:13;;;;;;;35.63;4.95;;;;;;;;;;5033828;28;20033;-71
2021/01/30 03:22:39;;;;;;;37.75;5.30;;;;;;;;;;5033515;28;20123;-70
2021/01/30 03:25:05;;;;;;;35.03;5.60;;;;;;;;;;5033693;28;20034;-68
2021/01/30 03:27:32;;;;;;;27.30;4.10;;;;;;;;;;5033109;28;20378;-68
2021/01/30 03:29:58;;;;;;;30.88;4.15;;;;;;;;;;5033313;28;20454;-68
2021/01/30 03:32:24;;;;;;;22.90;3.45;;;;;;;;;;5033426;28;20058;-68
2021/01/30 03:34:51;;;;;;;31.45;3.75;;;;;;;;;;5033443;28;20029;-68
2021/01/30 03:37:17;;;;;;;22.48;3.30;;;;;;;;;;5033293;28;20025;-68
2021/01/30 03:39:42;;;;;;;22.90;3.95;;;;;;;;;;5033419;28;20029;-68
2021/01/30 03:42:08;;;;;;;20.48;3.67;;;;;;;;;;5033022;28;20032;-68
2021/01/30 03:44:33;;;;;;;24.55;3.92;;;;;;;;;;5033297;28;20021;-68
2021/01/30 03:46:58;;;;;;;24.95;3.45;;;;;;;;;;5033237;28;20029;-68
2021/01/30 03:49:23;;;;;;;21.75;4.88;;;;;;;;;;5033175;28;20136;-68
2021/01/30 03:51:49;;;;;;;29.02;4.35;;;;;;;;;;5033145;28;20473;-69
2021/01/30 03:54:14;;;;;;;32.13;6.57;;;;;;;;;;5033096;28;20029;-68
2021/01/30 03:56:43;;;;;;;22.80;4.88;;;;;;;;;;5033105;28;20512;-68
2021/01/30 03:59:08;;;;;;;16.20;3.40;;;;;;;;;;5032975;28;20063;-68
2021/01/30 04:01:34;;;;;;;22.02;3.55;;;;;;;;;;5032979;28;20025;-68
2021/01/30 04:03:59;;;;;;;30.83;5.55;;;;;;;;;;5032570;28;20112;-68
2021/01/30 04:06:25;;;;;;;22.00;4.20;;;;;;;;;;5032918;28;20052;-68
2021/01/30 04:08:50;;;;;;;23.27;4.60;;;;;;;;;;5032225;28;20055;-68
2021/01/30 04:11:15;;;;;;;25.83;4.03;;;;;;;;;;5032746;28;20390;-67
2021/01/30 04:13:40;;;;;;;17.48;3.50;;;;;;;;;;5032742;28;20340;-68
2021/01/30 04:16:06;;;;;;;21.90;3.30;;;;;;;;;;5032819;28;20471;-68
2021/01/30 04:18:31;;;;;;;17.65;3.17;;;;;;;;;;5032589;28;20052;-68
2021/01/30 04:20:56;;;;;;;25.58;3.60;;;;;;;;;;5032836;28;20100;-68
2021/01/30 04:23:22;;;;;;;22.67;3.47;;;;;;;;;;5032380;28;20503;-68
2021/01/30 04:25:47;;;;;;;26.52;3.95;;;;;;;;;;5032392;28;20090;-68
2021/01/30 04:28:12;;;;;;;21.10;3.78;;;;;;;;;;5032613;28;20083;-68
2021/01/30 04:30:38;;;;;;;32.53;4.22;;;;;;;;;;5032427;28;20022;-68
2021/01/30 04:33:03;;;;;;;14.43;3.47;;;;;;;;;;5031746;28;20069;-68
2021/01/30 04:35:30;;;;;;;15.52;2.42;;;;;;;;;;5032654;28;20025;-68
2021/01/30 04:37:56;;;;;;;17.67;3.15;;;;;;;;;;5032262;28;20138;-68
2021/01/30 04:40:26;;;;;;;14.05;2.30;;;;;;;;;;5032648;28;20696;-69
2021/01/30 04:42:54;;;;;;;11.43;2.63;;;;;;;;;;5012754;28;20022;-69
2021/01/30 04:45:36;;;;;;;13.73;2.50;;;;;;;;;;5012473;28;20026;-68
2021/01/30 04:48:12;;;;;;;15.48;2.25;;;;;;;;;;5012287;28;20515;-68
2021/01/30 04:50:45;;;;;;;18.88;3.65;;;;;;;;;;5012782;28;20371;-68
2021/01/30 04:53:20;;;;;;;16.65;2.20;;;;;;;;;;5012685;28;20030;-68
2021/01/30 04:55:54;;;;;;;19.63;2.90;;;;;;;;;;5012429;28;20478;-68
2021/01/30 04:58:38;;;;;;;17.15;2.85;;;;;;;;;;5012501;28;20041;-68
2021/01/30 05:01:23;;;;;;;15.15;3.45;;;;;;;;;;5012618;28;20038;-68
2021/01/30 05:03:51;;;;;;;24.60;3.50;;;;;;;;;;5012053;28;20068;-68
2021/01/30 05:06:20;;;;;;;11.68;1.98;;;;;;;;;;5012654;28;20034;-67
2021/01/30 05:08:50;;;;;;;9.57;2.63;;;;;;;;;;5012285;28;20033;-68
2021/01/30 05:11:16;;;;;;;15.68;2.30;;;;;;;;;;5012645;28;20101;-68
2021/01/30 05:13:50;;;;;;;7.00;1.63;;;;;;;;;;5012376;28;20053;-68
2021/01/30 05:16:21;;;;;;;13.05;2.88;;;;;;;;;;5012622;28;20064;-67
2021/01/30 05:18:52;;;;;;;16.35;2.03;;;;;;;;;;5012253;28;20066;-67
2021/01/30 05:21:19;;;;;;;21.10;2.72;;;;;;;;;;5016318;28;20042;-68
2021/01/30 05:23:47;;;;;;;19.65;2.40;;;;;;;;;;5015990;28;20029;-67
2021/01/30 05:26:19;;;;;;;8.73;1.75;;;;;;;;;;5015922;28;20102;-68
2021/01/30 05:28:50;;;;;;;9.32;1.38;;;;;;;;;;5014648;28;20057;-67
2021/01/30 05:31:15;;;;;;;9.70;1.50;;;;;;;;;;5016168;28;20030;-67
2021/01/30 05:33:46;;;;;;;12.82;2.42;;;;;;;;;;5015830;28;20037;-67
2021/01/30 05:36:17;;;;;;;18.52;1.52;;;;;;;;;;5015981;28;20018;-67
2021/01/30 05:38:49;;;;;;;12.10;1.83;;;;;;;;;;5015633;28;20048;-67
2021/01/30 05:41:18;;;;;;;15.05;1.73;;;;;;;;;;5022998;28;20436;-67
2021/01/30 05:43:53;;;;;;;11.30;2.10;;;;;;;;;;5035383;28;20029;-67
2021/01/30 05:46:23;;;;;;;14.63;1.73;;;;;;;;;;5035536;28;20026;-67
2021/01/30 05:48:49;;;;;;;7.20;1.38;;;;;;;;;;5035308;28;20026;-67
2021/01/30 05:51:14;;;;;;;10.50;1.85;;;;;;;;;;5035431;28;20037;-67
2021/01/30 05:53:39;;;;;;;10.80;1.30;;;;;;;;;;5035266;28;20035;-67
2021/01/30 05:56:05;;;;;;;12.18;1.58;;;;;;;;;;5034195;28;20064;-67
2021/01/30 05:58:34;;;;;;;9.05;1.55;;;;;;;;;;5035069;28;20474;-67
2021/01/30 06:01:32;;;;;;;8.90;1.67;;;;;;;;;;5035269;28;20462;-67
2021/01/30 06:04:03;;;;;;;6.43;1.70;;;;;;;;;;5022555;28;20068;-67
2021/01/30 06:06:30;;;;;;;4.82;1.50;;;;;;;;;;5035228;28;20055;-67
2021/01/30 06:09:08;;;;;;;8.13;1.40;;;;;;;;;;5034957;28;20025;-66
2021/01/30 06:12:02;;;;;;;28.25;2.30;;;;;;;;;;5034798;28;20025;-67
2021/01/30 06:14:35;;;;;;;4.72;0.82;;;;;;;;;;5025723;28;20049;-69
2021/01/30 06:17:01;;;;;;;3.63;1.33;;;;;;;;;;5031720;28;20104;-69
2021/01/30 06:19:33;;;;;;;4.10;1.20;;;;;;;;;;5034022;28;20132;-69
2021/01/30 06:22:14;;;;;;;6.22;1.95;;;;;;;;;;5034710;28;20025;-70
2021/01/30 06:24:44;;;;;;;11.82;1.10;;;;;;;;;;5034640;28;20032;-69
2021/01/30 06:27:12;;;;;;;14.43;2.15;;;;;;;;;;5034849;28;20042;-70
2021/01/30 06:29:58;;;;;;;7.60;1.20;;;;;;;;;;5034574;28;20013;-67
2021/01/30 06:32:32;;;;;;;7.57;1.95;;;;;;;;;;5033611;28;20060;-66
2021/01/30 06:35:21;;;;;;;14.57;2.33;;;;;;;;;;5034702;28;20046;-66
2021/01/30 06:37:55;;;;;;;4.55;0.90;;;;;;;;;;5034319;28;20056;-67
2021/01/30 06:40:49;;;;;;;9.68;1.27;;;;;;;;;;5034468;28;20040;-66
2021/01/30 06:43:17;;;;;;;6.93;1.17;;;;;;;;;;5009775;28;20037;-66
2021/01/30 06:45:44;;;;;;;28.92;2.53;;;;;;;;;;5014253;28;20391;-66
2021/01/30 06:48:29;;;;;;;33.33;3.17;;;;;;;;;;5014546;28;20022;-66
2021/01/30 06:50:55;;;;;;;11.68;1.52;;;;;;;;;;5014117;28;20132;-66
2021/01/30 06:53:26;;;;;;;8.35;1.33;;;;;;;;;;5014087;28;20538;-66
2021/01/30 06:55:52;;;;;;;6.78;2.22;;;;;;;;;;5014409;28;20092;-67
2021/01/30 06:58:37;;;;;;;39.53;3.40;;;;;;;;;;5014274;28;20085;-66
2021/01/30 07:01:10;;;;;;;10.52;1.33;;;;;;;;;;5014325;28;20034;-66
2021/01/30 07:03:54;;;;;;;6.80;1.33;;;;;;;;;;5014145;28;20049;-66
2021/01/30 07:06:26;;;;;;;6.93;1.25;;;;;;;;;;5014099;28;20513;-66
2021/01/30 07:08:57;;;;;;;5.53;1.00;;;;;;;;;;5014051;28;20026;-67
2021/01/30 07:11:25;;;;;;;25.98;2.60;;;;;;;;;;5014017;28;20042;-66
2021/01/30 07:13:57;;;;;;;14.30;1.88;;;;;;;;;;5013945;28;20025;-66
2021/01/30 07:16:41;;;;;;;6.50;0.95;;;;;;;;;;5012824;28;20387;-67
2021/01/30 07:19:07;;;;;;;16.02;1.80;;;;;;;;;;5013684;28;20214;-66
2021/01/30 07:21:35;;;;;;;13.45;1.35;;;;;;;;;;5014091;28;20061;-66
2021/01/30 07:24:20;;;;;;;8.88;1.60;;;;;;;;;;5013798;28;20061;-66
2021/01/30 07:27:04;;;;;;;3.22;1.00;;;;;;;;;;5013763;28;20034;-66
2021/01/30 07:29:32;;;;;;;7.38;1.73;;;;;;;;;;5013665;28;20041;-66
2021/01/30 07:32:29;;;;;;;14.30;1.60;;;;;;;;;;5013678;28;20029;-66
2021/01/30 07:34:55;;;;;;;3.90;1.05;;;;;;;;;;5011977;28;20100;-67
2021/01/30 07:37:24;;;;;;;7.20;1.20;;;;;;;;;;5013720;28;20034;-66
2021/01/30 07:39:58;;;;;;;3.55;1.10;;;;;;;;;;5013355;28;20030;-67
2021/01/30 07:42:37;;;;;;;8.88;1.67;;;;;;;;;;5029586;28;20125;-67
2021/01/30 07:45:11;;;;;;;8.23;1.65;;;;;;;;;;5033128;28;20042;-67
2021/01/30 07:47:44;;;;;;;6.78;1.20;;;;;;;;;;5033146;28;20033;-67
2021/01/30 07:50:20;;;;;;;6.97;1.95;;;;;;;;;;5031891;28;20146;-67
2021/01/30 07:53:11;;;;;;;6.05;1.58;;;;;;;;;;5032973;28;20037;-67
2021/01/30 07:55:40;;;;;;;5.28;1.13;;;;;;;;;;5031487;28;20076;-67
2021/01/30 07:58:07;;;;;;;5.55;1.50;;;;;;;;;;5033220;28;20052;-67
2021/01/30 08:00:40;;;;;;;6.53;1.45;;;;;;;;;;5033108;28;20083;-67
2021/01/30 08:03:05;;;;;;;4.25;1.48;;;;;;;;;;5032895;28;20075;-67
2021/01/30 08:05:36;;;;;;;7.68;1.58;;;;;;;;;;5033253;28;20033;-67
2021/01/30 08:08:26;;;;;;;6.53;1.70;;;;;;;;;;5032820;28;20022;-67
2021/01/30 08:11:10;;;;;;;5.40;1.65;;;;;;;;;;5032525;28;20462;-67
2021/01/30 08:13:44;;;;;;;11.82;3.33;;;;;;;;;;5032848;28;20049;-67
2021/01/30 08:16:21;;;;;;;5.35;1.90;;;;;;;;;;5032792;28;20075;-66
2021/01/30 08:18:48;;;;;;;10.13;1.70;;;;;;;;;;5032575;28;20053;-67
2021/01/30 08:21:36;;;;;;;9.38;1.83;;;;;;;;;;5032739;28;20025;-67
2021/01/30 08:24:20;;;;;;;7.93;1.52;;;;;;;;;;5029001;28;20132;-69
2021/01/30 08:27:01;;;;;;;4.13;1.40;;;;;;;;;;5032349;28;20401;-69
2021/01/30 08:29:28;;;;;;;6.95;1.60;;;;;;;;;;5032274;28;20026;-68
2021/01/30 08:32:00;;;;;;;17.65;2.55;;;;;;;;;;5032718;28;20038;-68
2021/01/30 08:34:30;;;;;;;6.93;1.83;;;;;;;;;;5031905;28;20416;-68
2021/01/30 08:36:57;;;;;;;8.70;2.67;;;;;;;;;;5031684;28;20052;-68
2021/01/30 08:39:28;;;;;;;6.63;2.40;;;;;;;;;;5031860;28;20393;-69
2021/01/30 08:41:53;;;;;;;13.77;1.98;;;;;;;;;;5032475;28;20028;-68
2021/01/30 08:44:38;;;;;;;10.25;2.28;;;;;;;;;;5032203;28;20029;-68
2021/01/30 08:47:05;;;;;;;11.10;2.05;;;;;;;;;;5027825;28;20049;-69
2021/01/30 08:49:33;;;;;;;6.82;2.67;;;;;;;;;;5031707;28;20041;-68
2021/01/30 08:52:13;;;;;;;10.10;2.88;;;;;;;;;;5031567;28;20057;-68
2021/01/30 08:54:40;;;;;;;7.47;2.72;;;;;;;;;;5032943;28;20026;-69
2021/01/30 08:57:25;;;;;;;5.40;1.95;;;;;;;;;;5035692;28;20104;-68
2021/01/30 08:59:52;;;;;;;4.63;2.03;;;;;;;;;;5026323;28;20124;-68
2021/01/30 09:02:27;;;;;;;5.57;1.92;;;;;;;;;;5036034;28;20030;-69
2021/01/30 09:05:12;;;;;;;4.13;1.83;;;;;;;;;;5033538;28;20037;-70
2021/01/30 09:07:40;;;;;;;3.65;1.70;;;;;;;;;;5031401;28;20271;-71
2021/01/30 09:10:11;;;;;;;2.53;1.40;;;;;;;;;;5035687;28;20030;-71
2021/01/30 09:12:51;;;;;;;2.65;1.40;;;;;;;;;;5034570;28;20057;-70
2021/01/30 09:15:35;;;;;;;2.65;1.48;;;;;;;;;;5036197;28;20029;-67
2021/01/30 09:18:00;;;;;;;2.28;1.20;;;;;;;;;;5027857;28;20374;-69
2021/01/30 09:20:29;;;;;;;2.80;1.10;;;;;;;;;;5033504;28;20124;-70
2021/01/30 09:23:10;;;;;;;2.75;1.42;;;;;;;;;;5035087;28;20044;-70
2021/01/30 09:25:48;;;;;;;2.95;1.50;;;;;;;;;;5035787;28;20060;-69
2021/01/30 09:28:17;;;;;;;3.53;1.70;;;;;;;;;;5035470;28;20084;-69
2021/01/30 09:30:45;;;;;;;4.03;1.63;;;;;;;;;;5035479;28;20026;-70
2021/01/30 09:33:20;;;;;;;4.30;1.27;;;;;;;;;;5031214;28;20051;-67
2021/01/30 09:35:45;;;;;;;4.68;1.58;;;;;;;;;;5033972;28;20025;-67
2021/01/30 09:38:25;;;;;;;1.52;0.73;;;;;;;;;;5034911;28;20091;-67
2021/01/30 09:41:11;;;;;;;3.10;1.23;;;;;;;;;;5034987;28;20100;-68
2021/01/30 09:43:36;;;;;;;47.08;2.55;;;;;;;;;;5035093;28;20045;-67
2021/01/30 09:46:04;;;;;;;3.58;1.80;;;;;;;;;;5035315;28;20422;-68
2021/01/30 09:48:29;;;;;;;2.78;1.40;;;;;;;;;;5035090;28;20117;-68
2021/01/30 09:50:57;;;;;;;2.38;1.20;;;;;;;;;;5035259;28;20030;-68
2021/01/30 09:53:32;;;;;;;1.92;1.00;;;;;;;;;;5035639;28;20033;-68
2021/01/30 09:56:04;;;;;;;2.22;1.10;;;;;;;;;;5035279;28;20068;-68
2021/01/30 09:58:30;;;;;;;4.18;1.33;;;;;;;;;;5034825;28;20593;-68
2021/01/30 10:00:57;;;;;;;3.30;1.45;;;;;;;;;;5034914;28;20041;-70
2021/01/30 10:03:32;;;;;;;3.45;1.90;;;;;;;;;;5035145;28;20028;-70
2021/01/30 10:06:07;;;;;;;1.50;0.95;;;;;;;;;;5033830;28;20474;-69
2021/01/30 10:08:33;;;;;;;2.85;1.48;;;;;;;;;;5034280;28;20041;-69
2021/01/30 10:11:07;;;;;;;3.03;1.60;;;;;;;;;;5034262;28;20029;-70
2021/01/30 10:13:33;;;;;;;2.90;1.60;;;;;;;;;;5034576;28;20085;-67
2021/01/30 10:16:02;;;;;;;2.83;1.55;;;;;;;;;;5034930;28;20119;-67
2021/01/30 10:18:29;;;;;;;2.65;1.58;;;;;;;;;;5034835;28;20103;-67
2021/01/30 10:21:01;;;;;;;3.42;1.40;;;;;;;;;;5019426;28;20025;-70
2021/01/30 10:23:28;;;;;;;1.90;1.13;;;;;;;;;;5033003;28;20482;-70
2021/01/30 10:26:03;;;;;;;2.60;1.30;;;;;;;;;;5032870;28;20692;-70
2021/01/30 10:28:38;;;;;;;2.65;1.23;;;;;;;;;;5033231;28;20026;-70
2021/01/30 10:31:04;;;;;;;2.70;1.35;;;;;;;;;;5032671;28;20478;-70
2021/01/30 10:33:29;;;;;;;2.25;1.30;;;;;;;;;;5033766;28;20048;-70
2021/01/30 10:35:55;;;;;;;2.30;1.10;;;;;;;;;;5032561;28;20041;-70
2021/01/30 10:38:21;;;;;;;4.38;2.00;;;;;;;;;;5032621;28;20034;-71
2021/01/30 10:40:49;;;;;;;3.65;1.83;;;;;;;;;;5032741;28;20021;-70
2021/01/30 10:43:15;;;;;;;4.63;1.88;;;;;;;;;;5033291;28;20037;-70
2021/01/30 10:45:43;;;;;;;3.60;2.30;;;;;;;;;;5033095;28;20783;-70
2021/01/30 10:48:10;;;;;;;1.50;0.90;;;;;;;;;;5033777;28;20036;-70
2021/01/30 10:50:46;;;;;;;4.38;1.70;;;;;;;;;;5032394;28;20033;-70
2021/01/30 10:53:11;;;;;;;;;;;;;;;;;;5033560;28;20390;-69
2021/01/30 10:55:37;;;;;;;0.93;0.75;;;;;;;;;;5033517;28;19905;-70
2021/01/30 10:58:11;;;;;;;2.65;1.15;;;;;;;;;;5032261;28;20639;-70
2021/01/30 11:00:37;;;;;;;2.72;1.35;;;;;;;;;;5032514;28;20065;-70
2021/01/30 11:03:18;;;;;;;1.27;0.85;;;;;;;;;;5033606;28;20498;-70
2021/01/30 11:05:43;;;;;;;2.97;1.60;;;;;;;;;;5031635;28;20029;-70
2021/01/30 11:08:08;;;;;;;2.42;1.05;;;;;;;;;;5031929;28;20427;-71
2021/01/30 11:10:36;;;;;;;4.38;1.48;;;;;;;;;;5032518;28;20018;-70
2021/01/30 11:13:14;;;;;;;4.03;2.08;;;;;;;;;;5032346;28;20045;-70
2021/01/30 11:15:44;;;;;;;2.90;1.30;;;;;;;;;;5026149;28;20871;-70
2021/01/30 11:18:12;;;;;;;2.20;1.30;;;;;;;;;;5023635;28;20894;-70
2021/01/30 11:20:42;;;;;;;2.60;0.95;;;;;;;;;;5027650;28;20409;-70
2021/01/30 11:23:08;;;;;;;1.73;1.10;;;;;;;;;;5029940;28;20485;-70
2021/01/30 11:25:36;;;;;;;2.55;1.83;;;;;;;;;;5027058;28;20026;-70
2021/01/30 11:28:02;;;;;;;1.85;0.98;;;;;;;;;;5027285;28;20108;-70
2021/01/30 11:30:30;;;;;;;1.95;1.10;;;;;;;;;;5029233;28;20108;-70
2021/01/30 11:33:02;;;;;;;1.40;0.82;;;;;;;;;;5030963;28;20021;-70
2021/01/30 11:35:34;;;;;;;1.23;0.85;;;;;;;;;;5030886;28;20042;-70
2021/01/30 11:38:02;;;;;;;1.77;0.90;;;;;;;;;;5030831;28;20022;-70
2021/01/30 11:40:27;;;;;;;1.08;0.77;;;;;;;;;;5030623;28;20040;-70
2021/01/30 11:42:53;;;;;;;2.22;1.27;;;;;;;;;;5031282;28;20018;-70
2021/01/30 11:45:18;;;;;;;2.53;1.48;;;;;;;;;;5030614;28;20014;-70
2021/01/30 11:47:43;;;;;;;1.77;1.00;;;;;;;;;;5030645;28;20076;-70
2021/01/30 11:50:09;;;;;;;0.75;0.70;;;;;;;;;;5028134;28;20021;-70
2021/01/30 11:52:34;;;;;;;0.93;0.63;;;;;;;;;;5030398;28;20033;-70
2021/01/30 11:55:02;;;;;;;0.90;0.77;;;;;;;;;;5027559;28;20037;-70
2021/01/30 11:57:27;;;;;;;2.22;1.10;;;;;;;;;;5030863;28;20018;-70
2021/01/30 11:59:53;;;;;;;2.03;1.17;;;;;;;;;;5030880;28;20025;-70
2021/01/30 12:02:22;;;;;;;1.13;0.90;;;;;;;;;;5030511;28;20030;-70
2021/01/30 12:04:47;;;;;;;2.00;1.02;;;;;;;;;;5030129;28;20061;-70
2021/01/30 12:07:12;;;;;;;1.13;0.90;;;;;;;;;;5030273;28;20489;-70
2021/01/30 12:09:39;;;;;;;1.17;0.80;;;;;;;;;;5030395;28;20048;-70
2021/01/30 12:12:05;;;;;;;0.57;0.47;;;;;;;;;;5030304;28;20049;-70
2021/01/30 12:14:30;;;;;;;1.60;0.80;;;;;;;;;;5030735;28;20022;-70
2021/01/30 12:16:56;;;;;;;1.02;0.70;;;;;;;;;;5030189;28;20451;-70
2021/01/30 12:19:22;;;;;;;0.73;0.70;;;;;;;;;;5027662;28;20498;-71
2021/01/30 12:21:47;;;;;;;0.98;0.63;;;;;;;;;;5021642;28;20044;-70
2021/01/30 12:24:12;;;;;;;1.90;1.08;;;;;;;;;;5029184;28;20029;-70
2021/01/30 12:26:38;;;;;;;1.23;1.00;;;;;;;;;;5018684;28;20040;-70
2021/01/30 12:29:03;;;;;;;0.57;0.50;;;;;;;;;;5029124;28;20455;-70
2021/01/30 12:31:28;;;;;;;1.25;0.60;;;;;;;;;;5026645;28;20120;-70
2021/01/30 12:33:54;;;;;;;3.05;1.10;;;;;;;;;;5028387;28;20109;-70
2021/01/30 12:36:19;;;;;;;1.75;1.25;;;;;;;;;;5029000;28;20036;-70
2021/01/30 12:38:44;;;;;;;2.22;1.33;;;;;;;;;;5029188;28;20083;-70
2021/01/30 12:41:11;;;;;;;2.25;1.40;;;;;;;;;;5029357;28;20009;-70
2021/01/30 12:43:37;;;;;;;1.80;1.10;;;;;;;;;;5026763;28;20026;-70
2021/01/30 12:46:02;;;;;;;2.70;1.08;;;;;;;;;;5028084;28;20079;-71
2021/01/30 12:48:27;;;;;;;1.45;1.10;;;;;;;;;;5029157;28;20064;-70
2021/01/30 12:50:54;;;;;;;1.63;0.98;;;;;;;;;;5029137;28;20022;-71
2021/01/30 12:53:19;;;;;;;1.75;1.00;;;;;;;;;;5029079;28;20494;-70
2021/01/30 12:55:45;;;;;;;2.17;1.10;;;;;;;;;;5028643;28;20096;-70
2021/01/30 12:58:11;;;;;;;1.95;1.13;;;;;;;;;;5029008;28;20083;-70
2021/01/30 13:00:36;;;;;;;1.38;0.90;;;;;;;;;;5028937;28;20108;-70
2021/01/30 13:03:02;;;;;;;1.55;1.10;;;;;;;;;;5028777;28;20113;-70
2021/01/30 13:05:27;;;;;;;0.88;0.70;;;;;;;;;;5029129;28;20027;-70
2021/01/30 13:07:52;;;;;;;0.60;0.60;;;;;;;;;;5025587;28;20069;-70
2021/01/30 13:10:19;;;;;;;2.08;0.93;;;;;;;;;;5026625;28;20400;-70
2021/01/30 13:12:45;;;;;;;1.15;0.90;;;;;;;;;;5025366;28;20050;-71
2021/01/30 13:15:10;;;;;;;1.13;0.77;;;;;;;;;;5028593;28;20116;-70
2021/01/30 13:17:36;;;;;;;0.95;0.70;;;;;;;;;;5026411;28;20104;-71
2021/01/30 13:20:01;;;;;;;1.98;1.08;;;;;;;;;;5028733;28;20521;-70
2021/01/30 13:22:26;;;;;;;1.63;1.10;;;;;;;;;;5028824;28;20069;-70
2021/01/30 13:24:52;;;;;;;2.42;1.30;;;;;;;;;;5028405;28;20021;-70
2021/01/30 13:27:18;;;;;;;1.23;0.90;;;;;;;;;;5026675;28;20025;-70
2021/01/30 13:29:44;;;;;;;1.20;0.80;;;;;;;;;;5027703;28;20441;-71
2021/01/30 13:32:09;;;;;;;1.85;1.25;;;;;;;;;;5028578;28;20053;-71
2021/01/30 13:34:35;;;;;;;1.40;0.90;;;;;;;;;;5028794;28;20112;-70
2021/01/30 13:37:00;;;;;;;1.23;0.82;;;;;;;;;;5025199;28;20041;-70
2021/01/30 13:39:25;;;;;;;1.83;1.20;;;;;;;;;;5028611;28;20116;-70
2021/01/30 13:41:51;;;;;;;1.73;1.17;;;;;;;;;;5032311;28;20454;-70
2021/01/30 13:44:16;;;;;;;1.45;1.05;;;;;;;;;;5032209;28;20037;-70
2021/01/30 13:46:42;;;;;;;1.25;0.90;;;;;;;;;;5032102;28;20025;-71
2021/01/30 13:49:07;;;;;;;2.08;1.10;;;;;;;;;;5032839;28;20360;-70
2021/01/30 13:51:32;;;;;;;1.85;1.30;;;;;;;;;;5033235;28;20033;-70
2021/01/30 13:54:00;;;;;;;2.00;1.20;;;;;;;;;;5032649;28;20032;-70
2021/01/30 13:56:26;;;;;;;2.60;1.38;;;;;;;;;;5033273;28;20418;-70
2021/01/30 13:58:52;;;;;;;2.75;1.50;;;;;;;;;;5032501;28;20099;-71
2021/01/30 14:01:17;;;;;;;2.92;1.80;;;;;;;;;;5022777;28;20021;-71
2021/01/30 14:03:42;;;;;;;2.25;1.30;;;;;;;;;;5030252;28;20032;-71
2021/01/30 14:06:07;;;;;;;2.88;1.80;;;;;;;;;;5030586;28;20029;-70
2021/01/30 14:08:33;;;;;;;2.25;1.50;;;;;;;;;;5030055;28;20039;-70
2021/01/30 14:10:58;;;;;;;2.65;1.50;;;;;;;;;;5030953;28;20477;-70
2021/01/30 14:13:23;;;;;;;2.55;1.50;;;;;;;;;;5027105;28;20388;-70
2021/01/30 14:15:49;;;;;;;3.63;1.92;;;;;;;;;;5030020;28;20013;-71
2021/01/30 14:18:15;;;;;;;2.40;1.20;;;;;;;;;;5030302;28;20033;-70
2021/01/30 14:20:40;;;;;;;3.78;1.92;;;;;;;;;;5030017;28;20041;-70
2021/01/30 14:23:06;;;;;;;3.30;1.85;;;;;;;;;;5030690;28;20014;-70
2021/01/30 14:25:31;;;;;;;2.80;1.77;;;;;;;;;;5030395;28;20013;-70
2021/01/30 14:28:00;;;;;;;3.60;1.98;;;;;;;;;;5028843;28;20033;-70
2021/01/30 14:30:26;;;;;;;6.32;2.15;;;;;;;;;;5031555;28;20021;-70
2021/01/30 14:32:51;;;;;;;3.75;2.17;;;;;;;;;;5031677;28;20466;-70
2021/01/30 14:35:17;;;;;;;1.77;1.20;;;;;;;;;;5031718;28;20082;-70
2021/01/30 14:37:42;;;;;;;2.58;1.75;;;;;;;;;;5032443;28;20378;-70
2021/01/30 14:40:08;;;;;;;2.40;1.45;;;;;;;;;;5032415;28;20029;-71
2021/01/30 14:42:33;;;;;;;3.25;1.88;;;;;;;;;;5031485;28;20041;-71
2021/01/30 14:44:58;;;;;;;3.42;2.10;;;;;;;;;;5031827;28;20028;-70
2021/01/30 14:47:24;;;;;;;4.45;2.70;;;;;;;;;;5031282;28;20018;-70
2021/01/30 14:49:50;;;;;;;3.55;1.80;;;;;;;;;;5031761;28;20033;-71